Time;durP1;ratioP1;P1;durP2;ratioP2;P2;SDS_P1;SDS_P2;PMS_P1;PMS_P2;Temp;Humidity;BMP_temperature;BMP_pressure;BME280_temperature;BME280_humidity;BME280_pressure;Samples;Min_cycle;Max_cycle;Signal;HPM_P1;HPM_P2
2022/12/13 00:01:23;;;;;;;16.90;9.97;;;-1.70;99.90;-2.20;100168.00;;;;4811038;28;94075;-64
2022/12/13 00:03:51;;;;;;;17.37;10.33;;;-1.70;99.90;-2.20;100174.00;;;;4817093;28;95362;-64
2022/12/13 00:06:17;;;;;;;19.10;10.57;;;-1.70;99.90;-2.20;100171.00;;;;4815990;28;92992;-65
2022/12/13 00:08:42;;;;;;;16.67;10.30;;;-1.80;99.90;-2.10;100180.00;;;;4815687;28;106894;-64
2022/12/13 00:11:12;;;;;;;16.57;10.67;;;-1.70;99.90;-2.10;100176.00;;;;4817923;28;123271;-64
2022/12/13 00:13:40;;;;;;;20.27;11.50;;;-1.60;99.90;-2.10;100178.00;;;;4813469;28;93768;-64
2022/12/13 00:16:10;;;;;;;21.47;11.63;;;-1.70;99.90;-2.20;100170.00;;;;4811689;28;92890;-64
2022/12/13 00:18:36;;;;;;;16.47;10.97;;;-1.70;99.90;-2.20;100169.00;;;;4813441;28;101153;-64
2022/12/13 00:21:07;;;;;;;18.13;10.47;;;-1.70;99.90;-2.20;100178.00;;;;4820037;28;123822;-65
2022/12/13 00:23:33;;;;;;;16.57;9.53;;;-1.70;99.90;-2.20;100174.00;;;;4814686;28;93125;-64
2022/12/13 00:26:10;;;;;;;21.03;10.53;;;-1.80;99.90;-2.20;100178.00;;;;4816416;28;113096;-64
2022/12/13 00:28:37;;;;;;;17.63;9.90;;;-1.70;99.90;-2.20;100177.00;;;;4818109;28;93667;-64
2022/12/13 00:31:03;;;;;;;16.60;9.93;;;-1.80;99.90;-2.20;100181.00;;;;4817933;28;109124;-64
2022/12/13 00:33:29;;;;;;;18.80;11.03;;;-1.70;99.90;-2.20;100175.00;;;;4813754;28;94037;-64
2022/12/13 00:35:55;;;;;;;21.63;11.57;;;-1.80;99.90;-2.30;100163.00;;;;4813757;28;108258;-65
2022/12/13 00:38:22;;;;;;;17.40;10.63;;;-1.90;99.90;-2.30;100170.00;;;;4815281;28;92928;-64
2022/12/13 00:40:48;;;;;;;19.53;12.07;;;-1.80;99.90;-2.30;100162.00;;;;4816026;28;116053;-65
2022/12/13 00:43:13;;;;;;;18.30;11.53;;;-2.00;99.90;-2.30;100163.00;;;;4811968;28;92791;-64
2022/12/13 00:45:40;;;;;;;20.60;11.17;;;-1.90;99.90;-2.30;100168.00;;;;4812319;28;113050;-64
2022/12/13 00:48:06;;;;;;;16.40;9.67;;;-1.90;99.90;-2.30;100150.00;;;;4812814;28;108584;-64
2022/12/13 00:50:32;;;;;;;21.80;11.57;;;-1.80;99.90;-2.30;100165.00;;;;4820167;28;122911;-64
2022/12/13 00:52:59;;;;;;;15.10;10.40;;;-1.90;99.90;-2.40;100159.00;;;;4818922;28;93804;-64
2022/12/13 00:55:25;;;;;;;18.47;12.07;;;-1.90;99.90;-2.40;100166.00;;;;4817154;28;107257;-65
2022/12/13 00:57:51;;;;;;;22.17;11.43;;;-1.90;99.90;-2.30;100164.00;;;;4818763;28;100565;-64
2022/12/13 01:00:17;;;;;;;21.47;12.80;;;-1.90;99.90;-2.40;100174.00;;;;4813626;28;92775;-64
2022/12/13 01:02:43;;;;;;;17.80;10.23;;;-1.90;99.90;-2.40;100175.00;;;;4812641;28;105027;-64
2022/12/13 01:05:10;;;;;;;17.30;10.93;;;-2.00;99.90;-2.40;100174.00;;;;4811780;28;93729;-64
2022/12/13 01:07:38;;;;;;;18.20;10.33;;;-2.00;99.90;-2.40;100179.00;;;;4818934;28;93066;-65
2022/12/13 01:10:06;;;;;;;16.87;10.27;;;-1.90;99.90;-2.40;100167.00;;;;4799112;28;93173;-65
2022/12/13 01:12:33;;;;;;;20.10;10.17;;;-2.00;99.90;-2.40;100171.00;;;;4815862;28;113848;-64
2022/12/13 01:14:59;;;;;;;16.63;10.97;;;-2.00;99.90;-2.40;100168.00;;;;4813225;28;93067;-64
2022/12/13 01:17:25;;;;;;;18.07;10.30;;;-1.90;99.90;-2.40;100171.00;;;;4811393;28;108232;-65
2022/12/13 01:19:51;;;;;;;18.53;10.20;;;-1.90;99.90;-2.40;100162.00;;;;4816565;28;94054;-65
2022/12/13 01:22:17;;;;;;;16.90;10.23;;;-2.00;99.90;-2.40;100170.00;;;;4792845;28;120700;-66
2022/12/13 01:24:43;;;;;;;17.87;10.60;;;-1.90;99.90;-2.40;100151.00;;;;4814863;28;93509;-64
2022/12/13 01:27:08;;;;;;;18.57;11.00;;;-2.00;99.90;-2.40;100150.00;;;;4816849;28;92953;-64
2022/12/13 01:29:34;;;;;;;19.00;10.03;;;-2.00;99.90;-2.40;100149.00;;;;4811721;28;118392;-64
2022/12/13 01:32:00;;;;;;;18.33;10.47;;;-1.60;99.90;-2.40;100145.00;;;;4812768;28;122735;-64
2022/12/13 01:34:26;;;;;;;15.97;10.07;;;-1.90;99.90;-2.40;100143.00;;;;4815842;28;112412;-66
2022/12/13 01:36:53;;;;;;;20.57;10.87;;;-2.00;99.90;-2.50;100143.00;;;;4817028;28;92983;-65
2022/12/13 01:39:19;;;;;;;14.50;9.37;;;-2.00;99.90;-2.50;100148.00;;;;4813925;28;93186;-65
2022/12/13 01:41:49;;;;;;;16.60;9.93;;;-2.10;99.90;-2.50;100148.00;;;;4819113;28;99977;-65
2022/12/13 01:44:52;;;;;;;16.00;8.77;;;-2.00;99.90;-2.50;100141.00;;;;4819818;28;93028;-64
2022/12/13 01:47:40;;;;;;;11.27;8.53;;;-2.00;99.90;-2.50;100141.00;;;;4812956;28;95149;-64
2022/12/13 01:50:11;;;;;;;14.10;8.47;;;-2.00;99.90;-2.50;100148.00;;;;4809875;28;93987;-64
2022/12/13 01:52:38;;;;;;;16.77;9.73;;;-2.10;99.90;-2.50;100147.00;;;;4795740;28;93492;-65
2022/12/13 01:55:06;;;;;;;17.27;9.37;;;-2.30;99.90;-2.50;100156.00;;;;4812169;28;111169;-64
2022/12/13 01:57:36;;;;;;;13.20;8.33;;;-2.10;99.90;-2.50;100133.00;;;;4794367;28;100027;-64
2022/12/13 02:00:06;;;;;;;14.23;8.80;;;-2.00;99.90;-2.50;100142.00;;;;4814515;28;114744;-64
2022/12/13 02:02:32;;;;;;;14.10;8.90;;;-2.00;99.90;-2.50;100143.00;;;;4809618;28;93258;-64
2022/12/13 02:05:20;;;;;;;15.50;8.90;;;-2.00;99.90;-2.50;100136.00;;;;4812942;28;96546;-65
2022/12/13 02:07:47;;;;;;;14.10;9.10;;;-1.00;99.90;-2.40;100142.00;;;;4810200;28;94226;-64
2022/12/13 02:10:13;;;;;;;12.93;7.63;;;-2.00;99.90;-2.40;100143.00;;;;4802347;28;122871;-65
2022/12/13 02:12:40;;;;;;;12.90;8.17;;;-2.00;99.90;-2.40;100144.00;;;;4814101;28;122289;-65
2022/12/13 02:15:13;;;;;;;10.83;7.73;;;-2.00;99.90;-2.40;100143.00;;;;4796012;28;110113;-65
2022/12/13 02:18:13;;;;;;;13.93;9.67;;;-1.90;99.90;-2.50;100134.00;;;;4813460;28;97065;-64
2022/12/13 02:20:51;;;;;;;10.57;8.00;;;-2.00;99.90;-2.50;100146.00;;;;4815595;28;94254;-64
2022/12/13 02:23:41;;;;;;;14.90;9.10;;;-2.10;99.90;-2.50;100138.00;;;;4811295;28;94009;-64
2022/12/13 02:26:43;;;;;;;11.27;8.33;;;-2.10;99.90;-2.50;100139.00;;;;4812594;28;92245;-64
2022/12/13 02:29:18;;;;;;;17.07;9.17;;;-2.00;99.90;-2.50;100136.00;;;;4795439;28;103875;-65
2022/12/13 02:32:15;;;;;;;12.90;8.03;;;-2.10;99.90;-2.50;100127.00;;;;4813253;28;93319;-63
2022/12/13 02:35:12;;;;;;;19.20;9.33;;;-2.20;99.90;-2.50;100128.00;;;;4785438;29;93708;-64
2022/12/13 02:38:16;;;;;;;17.17;9.57;;;-2.00;99.90;-2.50;100122.00;;;;4809899;28;92847;-63
2022/12/13 02:44:08;;;;;;;17.60;9.30;;;-2.00;99.90;-2.50;100124.00;;;;5031277;27;81430;-63
2022/12/13 02:46:40;;;;;;;10.67;6.93;;;-1.00;99.90;-2.50;100132.00;;;;5005205;27;80971;-65
2022/12/13 02:49:09;;;;;;;17.50;9.53;;;-2.00;99.90;-2.50;100132.00;;;;5000252;27;83162;-64
2022/12/13 02:51:37;;;;;;;14.80;8.80;;;-2.00;99.90;-2.50;100126.00;;;;5015666;27;81428;-64
2022/12/13 02:54:03;;;;;;;14.43;8.80;;;-2.10;99.90;-2.50;100126.00;;;;5033952;27;81948;-65
2022/12/13 02:56:31;;;;;;;18.70;10.80;;;-2.00;99.90;-2.50;100128.00;;;;5034575;27;81254;-64
2022/12/13 02:58:59;;;;;;;17.40;9.77;;;-2.10;99.90;-2.50;100125.00;;;;5033085;27;83726;-64
2022/12/13 03:01:48;;;;;;;17.97;10.23;;;-2.00;99.90;-2.50;100119.00;;;;5012349;27;100511;-65
2022/12/13 03:08:20;;;;;;;16.63;10.40;;;-2.00;99.90;-2.50;100123.00;;;;5033498;27;83366;-63
2022/12/13 03:11:05;;;;;;;17.40;10.70;;;-2.00;99.90;-2.50;100120.00;;;;5013523;27;83630;-64
2022/12/13 03:13:56;;;;;;;14.13;8.63;;;-2.00;99.90;-2.60;100123.00;;;;5013501;27;83591;-63
2022/12/13 03:16:35;;;;;;;18.93;9.87;;;-2.10;99.90;-2.60;100126.00;;;;5032838;27;86187;-63
2022/12/13 03:19:07;;;;;;;13.57;8.80;;;-2.20;99.90;-2.60;100131.00;;;;5030770;27;82322;-63
2022/12/13 03:21:51;;;;;;;14.80;9.23;;;-2.10;99.90;-2.60;100137.00;;;;5012842;27;98041;-64
2022/12/13 03:24:19;;;;;;;18.07;9.63;;;-2.10;99.90;-2.60;100126.00;;;;5011869;27;109158;-64
2022/12/13 03:26:48;;;;;;;16.07;9.63;;;-2.20;99.90;-2.60;100128.00;;;;5032144;27;90398;-64
2022/12/13 03:29:15;;;;;;;16.90;9.40;;;-2.10;99.90;-2.60;100134.00;;;;5013363;27;104008;-64
2022/12/13 03:31:40;;;;;;;15.37;8.97;;;-1.70;99.90;-2.50;100129.00;;;;5034136;27;81725;-64
2022/12/13 03:34:06;;;;;;;16.57;9.33;;;-2.20;99.90;-2.50;100130.00;;;;5033736;27;109069;-64
2022/12/13 03:36:32;;;;;;;14.17;8.87;;;-2.10;99.90;-2.50;100130.00;;;;5033331;27;111441;-63
2022/12/13 03:38:58;;;;;;;18.23;9.77;;;-2.10;99.90;-2.50;100122.00;;;;5034121;27;81916;-64
2022/12/13 03:41:30;;;;;;;17.43;9.13;;;-2.10;99.90;-2.50;100124.00;;;;5031116;27;111843;-63
2022/12/13 03:43:59;;;;;;;13.67;8.83;;;-2.10;99.90;-2.50;100140.00;;;;4998291;27;81259;-63
2022/12/13 03:46:25;;;;;;;13.10;8.57;;;-2.10;99.90;-2.50;100125.00;;;;5007481;27;105052;-63
2022/12/13 03:48:51;;;;;;;13.67;7.83;;;-2.10;99.90;-2.50;100126.00;;;;5029657;27;110838;-64
2022/12/13 03:51:16;;;;;;;16.63;8.50;;;-2.10;99.90;-2.50;100124.00;;;;5027621;27;111585;-65
2022/12/13 03:53:43;;;;;;;15.00;9.13;;;-2.10;99.90;-2.50;100120.00;;;;5022139;27;109146;-64
2022/12/13 03:56:09;;;;;;;11.53;7.73;;;-2.10;99.90;-2.50;100125.00;;;;5017729;27;81951;-64
2022/12/13 03:58:35;;;;;;;16.63;9.77;;;-2.10;99.90;-2.60;100129.00;;;;5015363;27;110915;-64
2022/12/13 04:01:00;;;;;;;15.60;9.37;;;-2.00;99.90;-2.60;100127.00;;;;5017624;27;89129;-64
2022/12/13 04:03:26;;;;;;;19.50;9.67;;;-2.10;99.90;-2.60;100116.00;;;;5015655;27;106901;-63
2022/12/13 04:05:52;;;;;;;13.67;8.10;;;-2.20;99.90;-2.60;100138.00;;;;5018720;27;111005;-63
2022/12/13 04:08:18;;;;;;;18.50;10.33;;;-2.20;99.90;-2.60;100121.00;;;;5017504;27;81194;-63
2022/12/13 04:10:43;;;;;;;12.83;9.13;;;-2.20;99.90;-2.50;100123.00;;;;5011506;27;111302;-63
2022/12/13 04:15:54;;;;;;;16.63;10.13;;;-2.10;99.90;-2.60;100116.00;;;;5019592;27;81324;-63
2022/12/13 04:18:19;;;;;;;14.57;8.63;;;-2.20;99.90;-2.60;100117.00;;;;5019259;27;98060;-64
2022/12/13 04:20:46;;;;;;;18.40;9.60;;;-2.20;99.90;-2.60;100120.00;;;;5001969;27;91260;-63
2022/12/13 04:23:12;;;;;;;18.33;9.53;;;-2.10;99.90;-2.60;100116.00;;;;5016821;27;109988;-63
2022/12/13 04:25:39;;;;;;;13.23;8.83;;;-2.10;99.90;-2.60;100116.00;;;;5018646;27;111220;-64
2022/12/13 04:28:05;;;;;;;17.20;10.30;;;-2.10;99.90;-2.60;100119.00;;;;5022079;27;81094;-63
2022/12/13 04:30:31;;;;;;;16.77;9.20;;;-2.20;99.90;-2.60;100127.00;;;;5017533;27;109356;-62
2022/12/13 04:32:57;;;;;;;17.40;10.23;;;-2.30;99.90;-2.60;100114.00;;;;5018860;27;81323;-63
2022/12/13 04:35:23;;;;;;;15.20;9.33;;;-2.10;99.90;-2.60;100124.00;;;;5019297;27;83533;-62
2022/12/13 04:37:48;;;;;;;14.40;9.17;;;-2.20;99.90;-2.60;100119.00;;;;5017671;27;81343;-63
2022/12/13 04:40:14;;;;;;;15.93;8.90;;;-2.10;99.90;-2.60;100120.00;;;;5018652;27;84120;-66
2022/12/13 04:42:40;;;;;;;13.07;7.83;;;-2.10;99.90;-2.60;100119.00;;;;5017841;27;108580;-63
2022/12/13 04:45:07;;;;;;;17.67;9.67;;;-2.20;99.90;-2.60;100117.00;;;;5018727;27;81106;-65
2022/12/13 04:47:32;;;;;;;13.83;9.13;;;-2.80;99.90;-2.60;100116.00;;;;5017331;27;81418;-62
2022/12/13 04:49:58;;;;;;;15.83;9.77;;;-2.10;99.90;-2.60;100123.00;;;;5016986;27;110679;-63
2022/12/13 04:52:24;;;;;;;16.27;8.63;;;-1.60;99.90;-2.60;100119.00;;;;5016779;27;81034;-63
2022/12/13 04:54:50;;;;;;;16.13;8.60;;;-2.20;99.90;-2.60;100127.00;;;;5020184;27;81270;-64
2022/12/13 04:57:16;;;;;;;15.83;9.00;;;-2.10;99.90;-2.60;100127.00;;;;5012882;27;80993;-63
2022/12/13 04:59:42;;;;;;;17.13;9.73;;;-2.10;99.90;-2.60;100127.00;;;;5015370;27;81832;-62
2022/12/13 05:02:09;;;;;;;15.60;8.80;;;-2.30;99.90;-2.60;100128.00;;;;5016173;27;80707;-62
2022/12/13 05:04:35;;;;;;;13.80;8.87;;;-2.20;99.90;-2.60;100127.00;;;;5016621;27;110029;-62
2022/12/13 05:07:01;;;;;;;12.87;8.10;;;-2.10;99.90;-2.60;100132.00;;;;5017499;27;111120;-63
2022/12/13 05:09:27;;;;;;;19.43;10.40;;;-2.20;99.90;-2.60;100131.00;;;;5017233;27;110236;-62
2022/12/13 05:11:52;;;;;;;15.83;8.43;;;-2.20;99.90;-2.60;100132.00;;;;5013886;27;110224;-62
2022/12/13 05:14:18;;;;;;;17.97;8.70;;;-2.10;99.90;-2.60;100131.00;;;;4994871;27;109822;-63
2022/12/13 05:16:44;;;;;;;14.80;8.53;;;-2.10;99.90;-2.50;100131.00;;;;5017276;27;84578;-63
2022/12/13 05:19:09;;;;;;;15.93;8.93;;;-2.20;99.90;-2.50;100132.00;;;;5016305;27;109925;-63
2022/12/13 05:21:35;;;;;;;11.30;8.10;;;-2.20;99.90;-2.50;100128.00;;;;5017292;27;98697;-62
2022/12/13 05:24:02;;;;;;;12.97;8.50;;;-2.10;99.90;-2.50;100135.00;;;;5016217;27;109714;-63
2022/12/13 05:26:28;;;;;;;12.13;9.10;;;-1.50;99.90;-2.50;100135.00;;;;5016153;27;81951;-62
2022/12/13 05:28:57;;;;;;;15.40;9.70;;;-2.10;99.90;-2.50;100137.00;;;;5013176;27;82896;-64
2022/12/13 05:31:23;;;;;;;17.13;9.73;;;-2.10;99.90;-2.50;100138.00;;;;5011241;27;98426;-64
2022/12/13 05:33:53;;;;;;;13.73;9.10;;;-1.20;99.90;-2.50;100138.00;;;;5012091;27;81276;-62
2022/12/13 05:36:18;;;;;;;12.73;8.63;;;-2.00;99.90;-2.50;100142.00;;;;5016000;27;110360;-63
2022/12/13 05:38:44;;;;;;;11.73;8.07;;;-2.20;99.90;-2.50;100143.00;;;;5017072;27;110739;-64
2022/12/13 05:41:16;;;;;;;15.70;9.23;;;-2.10;99.90;-2.50;100142.00;;;;5015870;27;108903;-63
2022/12/13 05:43:42;;;;;;;18.13;9.57;;;-1.30;99.90;-2.50;100137.00;;;;5014250;27;81746;-64
2022/12/13 05:46:07;;;;;;;16.30;8.20;;;-2.10;99.90;-2.50;100136.00;;;;5014851;27;88866;-63
2022/12/13 05:48:33;;;;;;;13.13;8.13;;;-0.80;99.90;-2.50;100139.00;;;;5015689;27;109367;-63
2022/12/13 05:50:58;;;;;;;14.60;8.33;;;-2.10;99.90;-2.50;100143.00;;;;5012956;27;109199;-63
2022/12/13 05:53:24;;;;;;;14.33;8.03;;;-2.00;99.90;-2.50;100143.00;;;;5013337;27;111708;-64
2022/12/13 05:55:50;;;;;;;15.03;9.10;;;-2.10;99.90;-2.50;100143.00;;;;5016757;27;110404;-62
2022/12/13 05:58:16;;;;;;;12.03;8.00;;;-2.10;99.90;-2.50;100152.00;;;;4995864;27;109783;-63
2022/12/13 06:00:42;;;;;;;12.93;8.63;;;-2.00;99.90;-2.50;100147.00;;;;5012522;27;81365;-63
2022/12/13 06:03:08;;;;;;;13.57;7.87;;;-2.10;99.90;-2.60;100135.00;;;;5011710;27;82112;-63
2022/12/13 06:05:34;;;;;;;12.80;7.63;;;-2.00;99.90;-2.60;100149.00;;;;5015364;27;83215;-65
2022/12/13 06:08:00;;;;;;;11.73;6.83;;;-2.20;99.90;-2.60;100151.00;;;;5016154;27;111154;-64
2022/12/13 06:10:27;;;;;;;16.53;8.27;;;-2.10;99.90;-2.60;100142.00;;;;5014578;27;81241;-64
2022/12/13 06:12:53;;;;;;;14.43;7.70;;;-2.10;99.90;-2.60;100144.00;;;;5012699;27;81729;-63
2022/12/13 06:15:18;;;;;;;11.67;7.63;;;-2.10;99.90;-2.60;100149.00;;;;5011686;27;110153;-62
2022/12/13 06:17:44;;;;;;;14.37;8.63;;;-2.20;99.90;-2.60;100153.00;;;;5012277;27;110046;-64
2022/12/13 06:20:10;;;;;;;16.07;8.27;;;-2.20;99.90;-2.60;100149.00;;;;5009966;27;108687;-65
2022/12/13 06:22:36;;;;;;;16.57;7.57;;;-2.20;99.90;-2.60;100155.00;;;;5008550;27;81280;-63
2022/12/13 06:25:02;;;;;;;17.77;8.40;;;-2.30;99.90;-2.60;100149.00;;;;5012781;27;109418;-63
2022/12/13 06:27:28;;;;;;;16.30;8.73;;;-2.20;99.90;-2.60;100147.00;;;;5012978;27;81417;-63
2022/12/13 06:29:53;;;;;;;14.10;7.77;;;-2.20;99.90;-2.70;100138.00;;;;5012956;27;108566;-64
2022/12/13 06:32:19;;;;;;;11.23;7.23;;;-2.10;99.90;-2.70;100147.00;;;;5010049;27;110709;-64
2022/12/13 06:34:45;;;;;;;9.73;6.43;;;-2.20;99.90;-2.80;100149.00;;;;5011151;27;81976;-64
2022/12/13 06:37:12;;;;;;;12.50;7.30;;;-2.20;99.90;-2.80;100158.00;;;;5012063;27;110027;-65
2022/12/13 06:39:39;;;;;;;10.00;6.90;;;-2.30;99.90;-2.80;100165.00;;;;4991445;27;81881;-64
2022/12/13 06:42:09;;;;;;;13.00;7.33;;;-2.30;99.90;-2.80;100169.00;;;;5006365;27;101740;-63
2022/12/13 06:44:35;;;;;;;12.30;7.97;;;-2.40;99.90;-2.80;100169.00;;;;5012657;27;92157;-64
2022/12/13 06:47:00;;;;;;;9.90;7.10;;;-2.40;99.90;-2.70;100165.00;;;;5011684;27;110089;-64
2022/12/13 06:49:26;;;;;;;12.30;7.97;;;-2.30;99.90;-2.70;100169.00;;;;5009055;27;107832;-64
2022/12/13 06:51:52;;;;;;;15.07;7.90;;;-2.30;99.90;-2.70;100174.00;;;;5005855;27;111808;-65
2022/12/13 06:54:19;;;;;;;14.17;7.80;;;-2.40;99.90;-2.70;100169.00;;;;4992057;27;84360;-65
2022/12/13 06:56:44;;;;;;;11.63;8.00;;;-2.20;99.90;-2.70;100175.00;;;;5009284;27;82862;-64
2022/12/13 06:59:11;;;;;;;11.33;6.87;;;-2.30;99.90;-2.70;100177.00;;;;5009380;27;101071;-65
2022/12/13 07:01:37;;;;;;;12.13;7.43;;;-2.30;99.90;-2.70;100181.00;;;;5008058;27;98785;-64
2022/12/13 07:04:03;;;;;;;12.43;7.83;;;-2.30;99.90;-2.70;100180.00;;;;5009678;27;99657;-64
2022/12/13 07:06:28;;;;;;;10.27;6.43;;;-2.30;99.90;-2.70;100188.00;;;;5008938;27;101209;-64
2022/12/13 07:08:56;;;;;;;13.90;7.60;;;-2.20;99.90;-2.70;100185.00;;;;5001257;27;109335;-64
2022/12/13 07:11:26;;;;;;;14.47;8.37;;;-2.30;99.90;-2.70;100199.00;;;;5006257;27;83284;-64
2022/12/13 07:13:53;;;;;;;13.27;6.90;;;-2.30;99.90;-2.80;100182.00;;;;5008637;27;86116;-64
2022/12/13 07:16:20;;;;;;;10.17;6.83;;;-2.30;99.90;-2.80;100175.00;;;;5010160;27;82827;-64
2022/12/13 07:18:46;;;;;;;10.93;7.17;;;-2.40;99.90;-2.80;100181.00;;;;5012959;27;82186;-66
2022/12/13 07:21:13;;;;;;;13.20;7.77;;;-2.40;99.90;-2.80;100190.00;;;;5011204;27;110975;-65
2022/12/13 07:23:40;;;;;;;11.47;7.60;;;-2.40;99.90;-2.80;100193.00;;;;5010874;27;82858;-64
2022/12/13 07:26:07;;;;;;;12.00;7.10;;;-2.40;99.90;-2.90;100183.00;;;;5010067;27;110308;-64
2022/12/13 07:28:34;;;;;;;13.53;7.80;;;-2.40;99.90;-2.80;100182.00;;;;5010796;27;82998;-64
2022/12/13 07:31:07;;;;;;;13.83;8.60;;;-2.40;99.90;-2.90;100179.00;;;;5015261;27;84187;-64
2022/12/13 07:33:34;;;;;;;18.33;9.03;;;-2.40;99.90;-2.90;100179.00;;;;5012209;27;102175;-64
2022/12/13 07:36:19;;;;;;;14.40;7.90;;;-2.50;99.90;-2.90;100180.00;;;;5013309;27;111146;-64
2022/12/13 07:38:52;;;;;;;16.00;8.97;;;-1.80;99.90;-2.90;100187.00;;;;5014281;27;82623;-64
2022/12/13 07:41:18;;;;;;;16.30;8.33;;;-2.40;99.90;-2.90;100182.00;;;;5010635;27;86367;-64
2022/12/13 07:43:44;;;;;;;14.73;9.20;;;-2.10;99.90;-2.90;100183.00;;;;5014406;27;82654;-64
2022/12/13 07:46:10;;;;;;;12.83;8.27;;;-2.40;99.90;-2.90;100186.00;;;;5014363;27;103530;-64
2022/12/13 07:48:36;;;;;;;11.00;7.10;;;-3.10;99.90;-2.90;100191.00;;;;5015539;27;83036;-64
2022/12/13 07:51:05;;;;;;;16.17;8.77;;;-2.40;99.90;-2.90;100184.00;;;;5014380;27;84654;-63
2022/12/13 07:53:32;;;;;;;15.90;7.83;;;-2.50;99.90;-2.90;100192.00;;;;5016779;27;84622;-64
2022/12/13 07:56:02;;;;;;;14.63;8.70;;;-2.70;99.90;-2.90;100186.00;;;;4996575;27;91901;-64
2022/12/13 07:58:29;;;;;;;13.90;7.80;;;-2.40;99.90;-2.80;100195.00;;;;5014962;27;82794;-64
2022/12/13 08:00:59;;;;;;;14.50;6.90;;;-2.40;99.90;-2.80;100199.00;;;;5014829;27;83505;-63
2022/12/13 08:03:25;;;;;;;10.87;7.07;;;-2.40;99.90;-2.80;100199.00;;;;5013599;27;83060;-64
2022/12/13 08:06:02;;;;;;;12.03;7.70;;;-2.40;99.90;-2.70;100197.00;;;;5014190;27;102593;-64
2022/12/13 08:08:28;;;;;;;12.70;7.37;;;-2.30;99.90;-2.70;100192.00;;;;5010501;27;81989;-63
2022/12/13 08:10:54;;;;;;;13.27;7.57;;;-2.40;99.90;-2.70;100201.00;;;;5014481;27;85315;-64
2022/12/13 08:13:20;;;;;;;10.77;7.13;;;-2.30;99.90;-2.70;100192.00;;;;5012724;27;112435;-64
2022/12/13 08:15:46;;;;;;;11.73;7.77;;;-2.30;99.90;-2.70;100197.00;;;;5014382;27;108078;-63
2022/12/13 08:18:11;;;;;;;9.87;6.57;;;-2.30;99.90;-2.60;100191.00;;;;5015347;27;82834;-64
2022/12/13 08:20:37;;;;;;;8.40;6.00;;;-2.30;99.90;-2.60;100203.00;;;;5013768;27;104508;-66
2022/12/13 08:23:03;;;;;;;10.47;6.50;;;-2.20;99.90;-2.60;100199.00;;;;4989895;27;112040;-66
2022/12/13 08:25:29;;;;;;;14.13;6.63;;;-1.50;99.90;-2.60;100198.00;;;;5014035;27;109980;-66
2022/12/13 08:27:55;;;;;;;10.57;6.80;;;-2.10;99.90;-2.60;100201.00;;;;5010941;27;82923;-65
2022/12/13 08:30:21;;;;;;;13.77;7.47;;;-2.20;99.90;-2.60;100203.00;;;;5009698;27;83534;-64
2022/12/13 08:32:49;;;;;;;10.40;6.63;;;-2.00;99.90;-2.50;100204.00;;;;5013946;27;84216;-64
2022/12/13 08:35:15;;;;;;;10.33;6.80;;;-2.10;99.90;-2.50;100205.00;;;;5011967;27;83411;-64
2022/12/13 08:37:40;;;;;;;11.50;6.67;;;-2.10;99.90;-2.50;100203.00;;;;5010399;27;108986;-64
2022/12/13 08:40:07;;;;;;;9.23;6.20;;;-1.10;99.90;-2.40;100199.00;;;;5010625;27;113493;-64
2022/12/13 08:42:32;;;;;;;9.50;6.37;;;-2.10;99.90;-2.40;100208.00;;;;5013475;27;84742;-64
2022/12/13 08:44:59;;;;;;;13.50;7.57;;;-2.00;99.90;-2.30;100210.00;;;;5014312;27;108624;-63
2022/12/13 08:47:26;;;;;;;12.33;7.13;;;-1.90;99.90;-2.20;100210.00;;;;5009449;27;109249;-64
2022/12/13 08:50:00;;;;;;;10.90;5.97;;;-1.90;99.90;-2.10;100205.00;;;;5014460;27;86334;-62
2022/12/13 08:52:26;;;;;;;14.57;6.83;;;-1.80;99.90;-1.80;100205.00;;;;5013106;27;83447;-63
2022/12/13 08:54:52;;;;;;;11.30;7.10;;;-1.50;99.90;-1.60;100200.00;;;;5013903;27;109150;-63
2022/12/13 08:57:17;;;;;;;11.30;7.10;;;-1.40;99.90;-1.50;100202.00;;;;5014509;27;82019;-63
2022/12/13 08:59:43;;;;;;;12.50;7.00;;;-1.20;99.90;-1.40;100196.00;;;;5013143;27;83531;-64
2022/12/13 09:02:14;;;;;;;8.53;6.13;;;-1.10;99.90;-1.20;100189.00;;;;5014761;27;96604;-63
2022/12/13 09:04:40;;;;;;;9.67;6.57;;;-0.90;99.90;-0.80;100204.00;;;;5013565;27;83739;-64
2022/12/13 09:07:06;;;;;;;12.03;6.80;;;-0.70;99.90;-0.40;100203.00;;;;5014625;27;82769;-63
2022/12/13 09:09:31;;;;;;;7.17;5.00;;;-0.20;99.90;0.00;100217.00;;;;5012598;27;112889;-63
2022/12/13 09:11:57;;;;;;;11.43;6.43;;;0.00;99.90;0.40;100208.00;;;;5010954;27;113499;-63
2022/12/13 09:14:23;;;;;;;5.83;4.23;;;0.50;99.90;0.70;100205.00;;;;5009827;27;112453;-64
2022/12/13 09:16:48;;;;;;;6.73;4.17;;;0.80;99.90;0.90;100216.00;;;;5012007;27;109255;-64
2022/12/13 09:19:14;;;;;;;5.17;4.00;;;1.10;99.90;0.90;100214.00;;;;5011021;27;112558;-63
2022/12/13 09:21:39;;;;;;;5.43;3.53;;;1.10;99.90;0.70;100213.00;;;;5012671;27;112216;-64
2022/12/13 09:24:05;;;;;;;5.97;3.77;;;1.00;99.90;0.40;100210.00;;;;5011993;27;110958;-65
2022/12/13 09:26:31;;;;;;;6.90;5.20;;;0.90;99.90;0.10;100215.00;;;;5011883;27;107646;-65
2022/12/13 09:28:56;;;;;;;5.80;4.13;;;0.60;99.90;-0.10;100215.00;;;;5013375;27;84889;-66
2022/12/13 09:31:22;;;;;;;4.93;3.97;;;0.30;99.90;-0.30;100209.00;;;;4988125;27;111215;-65
2022/12/13 09:33:48;;;;;;;5.37;4.37;;;1.00;99.90;-0.50;100215.00;;;;5009855;27;110869;-65
2022/12/13 09:36:19;;;;;;;8.03;4.57;;;0.00;99.90;-0.60;100218.00;;;;4969596;27;108673;-66
2022/12/13 09:38:46;;;;;;;7.13;4.57;;;-0.10;99.90;-0.70;100222.00;;;;5004871;27;82901;-64
2022/12/13 09:41:33;;;;;;;6.23;4.40;;;-0.20;99.90;-0.80;100217.00;;;;5009060;27;83632;-64
2022/12/13 09:44:23;;;;;;;8.47;4.97;;;-0.30;99.90;-0.80;100212.00;;;;4993277;27;99717;-63
2022/12/13 09:46:51;;;;;;;7.17;4.17;;;-0.40;99.90;-0.60;100209.00;;;;4991721;27;81839;-65
2022/12/13 09:49:20;;;;;;;5.17;4.67;;;-0.20;99.90;-0.60;100212.00;;;;5009990;27;101352;-65
2022/12/13 09:51:51;;;;;;;5.47;4.67;;;-0.30;99.90;-0.60;100200.00;;;;5008801;27;83174;-64
2022/12/13 09:54:20;;;;;;;7.53;4.47;;;-0.30;99.90;-0.70;100197.00;;;;5007284;27;100094;-66
2022/12/13 09:56:49;;;;;;;7.13;5.23;;;-0.20;99.90;-0.60;100201.00;;;;5012612;27;82907;-65
2022/12/13 09:59:17;;;;;;;5.70;3.70;;;-0.30;99.90;-0.40;100205.00;;;;4989551;27;83463;-67
2022/12/13 10:01:43;;;;;;;6.13;4.23;;;-0.10;99.90;-0.20;100203.00;;;;4992475;27;84080;-66
2022/12/13 10:04:14;;;;;;;7.80;5.00;;;0.10;99.90;0.20;100200.00;;;;5009361;27;102471;-65
2022/12/13 10:06:40;;;;;;;6.10;4.37;;;0.30;99.90;0.50;100212.00;;;;5008842;27;84266;-65
2022/12/13 10:09:10;;;;;;;5.33;4.00;;;0.60;99.90;0.80;100205.00;;;;5009820;27;83059;-66
2022/12/13 10:11:35;;;;;;;5.53;3.53;;;0.90;99.90;1.00;100207.00;;;;4994471;27;83326;-66
2022/12/13 10:14:10;;;;;;;6.50;4.10;;;1.10;99.90;1.20;100192.00;;;;4989373;27;111534;-65
2022/12/13 10:16:36;;;;;;;5.00;3.70;;;1.30;99.90;1.30;100199.00;;;;4992941;27;82915;-65
2022/12/13 10:19:15;;;;;;;4.70;3.30;;;1.40;99.90;1.40;100199.00;;;;5010404;27;84699;-64
2022/12/13 10:21:44;;;;;;;4.63;3.23;;;1.60;99.90;1.50;100201.00;;;;4991305;27;83717;-65
2022/12/13 10:24:24;;;;;;;5.37;3.03;;;1.70;99.90;1.70;100190.00;;;;5011073;27;82786;-65
2022/12/13 10:26:50;;;;;;;5.13;3.50;;;1.90;99.90;1.70;100183.00;;;;5010333;27;82712;-66
2022/12/13 10:29:16;;;;;;;6.80;3.50;;;1.90;99.90;1.80;100194.00;;;;5008163;27;111486;-65
2022/12/13 10:31:48;;;;;;;4.97;3.53;;;2.00;99.90;1.80;100188.00;;;;5006083;27;112295;-65
2022/12/13 10:34:24;;;;;;;7.17;3.60;;;2.90;99.90;1.90;100182.00;;;;4990319;27;102144;-65
2022/12/13 10:36:51;;;;;;;4.60;3.43;;;2.20;99.90;2.10;100183.00;;;;4991681;27;83652;-65
2022/12/13 10:39:38;;;;;;;4.93;4.47;;;2.30;99.90;2.30;100181.00;;;;4992851;27;83199;-65
2022/12/13 10:42:12;;;;;;;5.50;3.80;;;2.50;99.90;2.30;100176.00;;;;5008173;27;83169;-66
2022/12/13 10:44:38;;;;;;;6.53;3.87;;;2.50;99.90;2.30;100191.00;;;;5009796;27;83948;-65
2022/12/13 10:47:14;;;;;;;5.47;3.57;;;2.50;99.90;2.20;100182.00;;;;5012320;27;82921;-66
2022/12/13 10:49:56;;;;;;;7.70;4.37;;;2.50;99.90;2.20;100188.00;;;;5011321;27;83607;-65
2022/12/13 10:52:28;;;;;;;6.33;4.17;;;2.50;99.90;2.10;100190.00;;;;4990498;27;84327;-66
2022/12/13 10:54:57;;;;;;;4.47;3.47;;;2.50;99.90;2.00;100174.00;;;;4990457;27;82905;-65